TimeEST,TemperatureF,Dew PointF,Humidity,Sea Level PressureIn,VisibilityMPH,Wind Direction,Wind SpeedMPH,Gust SpeedMPH,PrecipitationIn,Events,Conditions,WindDirDegrees,DateUTC
12:53 AM,12.2,8.6,85,-9999,120.0,NNE,32.2,41.4,N/A,,Unknown,20,2013-02-22 05:53:00
1:47 AM,12.2,6.8,79,-9999,120.0,NNE,33.4,41.4,N/A,,Unknown,20,2013-02-22 06:47:00
2:54 AM,10.4,3.2,73,-9999,110.0,NNE,38.0,-,N/A,,Unknown,20,2013-02-22 07:54:00
3:53 AM,15.8,-0.4,49,-9999,110.0,North,33.4,50.6,N/A,,Partly Cloudy,10,2013-02-22 08:53:00
4:52 AM,15.8,-9.4,32,-9999,110.0,North,35.7,-,N/A,,Partly Cloudy,10,2013-02-22 09:52:00
5:54 AM,15.8,-7.6,35,-9999,120.0,North,31.1,-,N/A,,Clear,10,2013-02-22 10:54:00
6:52 AM,17.6,-16.6,21,-9999,120.0,NNE,26.5,43.7,N/A,,Clear,30,2013-02-22 11:52:00
7:48 AM,17.6,-23.8,15,-9999,130.0,NE,19.6,-,N/A,,Partly Cloudy,40,2013-02-22 12:48:00
8:51 AM,17.6,-14.8,23,-9999,130.0,ENE,19.6,-,N/A,,Partly Cloudy,70,2013-02-22 13:51:00
9:53 AM,21.2,-14.8,20,-9999,130.0,East,21.9,-,N/A,,Partly Cloudy,80,2013-02-22 14:53:00
10:51 AM,21.2,-7.6,28,-9999,130.0,East,17.3,-,N/A,,Scattered Clouds,90,2013-02-22 15:51:00
11:51 AM,21.2,-5.8,30,-9999,110.0,East,15.0,-,N/A,,Mostly Cloudy,90,2013-02-22 16:51:00
12:54 PM,23.0,-5.8,28,-9999,110.0,East,11.5,-,N/A,,Mostly Cloudy,80,2013-02-22 17:54:00
1:51 PM,21.2,-9.4,26,-9999,100.0,East,9.2,-,N/A,,Mostly Cloudy,90,2013-02-22 18:51:00
2:51 PM,21.2,-5.8,30,-9999,90.0,East,6.9,-,N/A,,Mostly Cloudy,100,2013-02-22 19:51:00
3:50 PM,21.2,-11.2,24,-9999,90.0,ESE,5.8,-,N/A,,Mostly Cloudy,110,2013-02-22 20:50:00
4:53 PM,17.6,-5.8,35,-9999,110.0,ESE,9.2,-,N/A,,Mostly Cloudy,120,2013-02-22 21:53:00
5:49 PM,19.4,-13.0,23,-9999,90.0,SE,6.9,-,N/A,,Mostly Cloudy,140,2013-02-22 22:49:00
6:52 PM,19.4,-11.2,25,-9999,90.0,SE,11.5,-,N/A,,Mostly Cloudy,140,2013-02-22 23:52:00
7:55 PM,19.4,-11.2,25,-9999,90.0,SSE,15.0,-,N/A,,Mostly Cloudy,160,2013-02-23 00:55:00
8:50 PM,21.2,-9.4,26,-9999,90.0,South,15.0,-,N/A,,Overcast,170,2013-02-23 01:50:00
9:51 PM,19.4,-7.6,30,-9999,90.0,South,20.7,-,N/A,,Mostly Cloudy,180,2013-02-23 02:51:00
10:51 PM,17.6,-7.6,32,-9999,90.0,South,24.2,-,N/A,,Mostly Cloudy,180,2013-02-23 03:51:00
11:56 PM,15.8,-5.8,38,-9999,85.0,South,23.0,-,N/A,,Overcast,190,2013-02-23 04:56:00